sensor_id;sensor_type;location;lat;lon;timestamp;temperature;humidity
7000;DHT22;3540;53.242;10.408;2023-02-07T00:02:01;-3.10;99.90
7000;DHT22;3540;53.242;10.408;2023-02-07T00:04:26;-3.10;99.90
7000;DHT22;3540;53.242;10.408;2023-02-07T00:06:52;-3.10;99.90
7000;DHT22;3540;53.242;10.408;2023-02-07T00:09:17;-3.20;99.90
7000;DHT22;3540;53.242;10.408;2023-02-07T00:11:43;-3.20;99.90
7000;DHT22;3540;53.242;10.408;2023-02-07T00:14:10;-3.20;99.90
7000;DHT22;3540;53.242;10.408;2023-02-07T00:16:37;-3.20;99.90
7000;DHT22;3540;53.242;10.408;2023-02-07T00:19:03;-3.20;99.90
7000;DHT22;3540;53.242;10.408;2023-02-07T00:21:28;-3.20;99.90
7000;DHT22;3540;53.242;10.408;2023-02-07T00:23:55;-3.20;99.90
7000;DHT22;3540;53.242;10.408;2023-02-07T00:26:23;-3.10;99.90
7000;DHT22;3540;53.242;10.408;2023-02-07T00:28:49;-3.20;99.90
7000;DHT22;3540;53.242;10.408;2023-02-07T00:31:21;-3.20;99.90
7000;DHT22;3540;53.242;10.408;2023-02-07T00:33:48;-3.20;99.90
7000;DHT22;3540;53.242;10.408;2023-02-07T00:36:17;-3.10;99.90
7000;DHT22;3540;53.242;10.408;2023-02-07T00:38:43;-3.10;99.90
7000;DHT22;3540;53.242;10.408;2023-02-07T00:41:10;-3.10;99.90
7000;DHT22;3540;53.242;10.408;2023-02-07T00:43:40;-3.10;99.90
7000;DHT22;3540;53.242;10.408;2023-02-07T00:46:06;-3.00;99.90
7000;DHT22;3540;53.242;10.408;2023-02-07T00:48:32;-3.00;99.90
7000;DHT22;3540;53.242;10.408;2023-02-07T00:50:58;-3.00;99.90
7000;DHT22;3540;53.242;10.408;2023-02-07T00:53:25;-3.10;99.90
7000;DHT22;3540;53.242;10.408;2023-02-07T00:55:51;-3.00;99.90
7000;DHT22;3540;53.242;10.408;2023-02-07T00:58:17;-3.00;99.90
7000;DHT22;3540;53.242;10.408;2023-02-07T01:00:43;-3.00;99.90
7000;DHT22;3540;53.242;10.408;2023-02-07T01:03:08;-3.00;99.90
7000;DHT22;3540;53.242;10.408;2023-02-07T01:05:34;-3.10;99.90
7000;DHT22;3540;53.242;10.408;2023-02-07T01:08:00;-3.10;99.90
7000;DHT22;3540;53.242;10.408;2023-02-07T01:10:27;-3.10;99.90
7000;DHT22;3540;53.242;10.408;2023-02-07T01:12:53;-3.10;99.90
7000;DHT22;3540;53.242;10.408;2023-02-07T01:15:18;-3.10;99.90
7000;DHT22;3540;53.242;10.408;2023-02-07T01:17:44;-3.10;99.90
7000;DHT22;3540;53.242;10.408;2023-02-07T01:20:11;-3.10;99.90
7000;DHT22;3540;53.242;10.408;2023-02-07T01:22:37;-3.10;99.90
7000;DHT22;3540;53.242;10.408;2023-02-07T01:25:04;-3.10;99.90
7000;DHT22;3540;53.242;10.408;2023-02-07T01:27:31;-3.10;99.90
7000;DHT22;3540;53.242;10.408;2023-02-07T01:29:57;-3.20;99.90
7000;DHT22;3540;53.242;10.408;2023-02-07T01:32:23;-3.30;99.90
7000;DHT22;3540;53.242;10.408;2023-02-07T01:34:48;-3.30;99.90
7000;DHT22;3540;53.242;10.408;2023-02-07T01:37:14;-3.40;99.90
7000;DHT22;3540;53.242;10.408;2023-02-07T01:39:40;-3.40;99.90
7000;DHT22;3540;53.242;10.408;2023-02-07T01:42:05;-3.50;99.90
7000;DHT22;3540;53.242;10.408;2023-02-07T01:46:56;-3.50;99.90
7000;DHT22;3540;53.242;10.408;2023-02-07T01:49:29;-3.40;99.90
7000;DHT22;3540;53.242;10.408;2023-02-07T01:51:59;-3.40;99.90
7000;DHT22;3540;53.242;10.408;2023-02-07T01:54:28;-3.50;99.90
7000;DHT22;3540;53.242;10.408;2023-02-07T01:57:04;-3.40;99.90
7000;DHT22;3540;53.242;10.408;2023-02-07T01:59:31;-3.40;99.90
7000;DHT22;3540;53.242;10.408;2023-02-07T02:02:01;-3.40;99.90
7000;DHT22;3540;53.242;10.408;2023-02-07T02:04:30;-3.40;99.90
7000;DHT22;3540;53.242;10.408;2023-02-07T02:06:56;-3.50;99.90
7000;DHT22;3540;53.242;10.408;2023-02-07T02:09:22;-3.40;99.90
7000;DHT22;3540;53.242;10.408;2023-02-07T02:12:24;-3.50;99.90
7000;DHT22;3540;53.242;10.408;2023-02-07T02:18:05;-3.40;99.90
7000;DHT22;3540;53.242;10.408;2023-02-07T02:35:33;-3.50;99.90
7000;DHT22;3540;53.242;10.408;2023-02-07T02:41:06;-3.50;99.90
7000;DHT22;3540;53.242;10.408;2023-02-07T02:43:38;-3.50;99.90
7000;DHT22;3540;53.242;10.408;2023-02-07T02:46:29;-3.60;99.90
7000;DHT22;3540;53.242;10.408;2023-02-07T02:48:56;-3.60;99.90
7000;DHT22;3540;53.242;10.408;2023-02-07T02:51:22;-3.50;99.90
7000;DHT22;3540;53.242;10.408;2023-02-07T02:53:52;-3.40;99.90
7000;DHT22;3540;53.242;10.408;2023-02-07T03:07:52;-3.00;99.90
7000;DHT22;3540;53.242;10.408;2023-02-07T03:10:30;-3.00;99.90
7000;DHT22;3540;53.242;10.408;2023-02-07T03:13:04;-2.90;99.90
7000;DHT22;3540;53.242;10.408;2023-02-07T03:21:04;-2.80;99.90
7000;DHT22;3540;53.242;10.408;2023-02-07T03:23:32;-2.80;99.90
7000;DHT22;3540;53.242;10.408;2023-02-07T03:25:59;-2.80;99.90
7000;DHT22;3540;53.242;10.408;2023-02-07T03:28:26;-2.70;99.90
7000;DHT22;3540;53.242;10.408;2023-02-07T03:30:53;-2.60;99.90
7000;DHT22;3540;53.242;10.408;2023-02-07T03:33:20;-2.60;99.90
7000;DHT22;3540;53.242;10.408;2023-02-07T03:38:13;-2.70;99.90
7000;DHT22;3540;53.242;10.408;2023-02-07T03:40:43;-2.60;99.90
7000;DHT22;3540;53.242;10.408;2023-02-07T03:43:17;-2.60;99.90
7000;DHT22;3540;53.242;10.408;2023-02-07T03:45:44;-2.50;99.90
7000;DHT22;3540;53.242;10.408;2023-02-07T03:48:10;-2.50;99.90
7000;DHT22;3540;53.242;10.408;2023-02-07T03:50:36;-2.50;99.90
7000;DHT22;3540;53.242;10.408;2023-02-07T03:53:02;-2.40;99.90
7000;DHT22;3540;53.242;10.408;2023-02-07T03:55:28;-2.40;99.90
7000;DHT22;3540;53.242;10.408;2023-02-07T03:57:54;-2.40;99.90
7000;DHT22;3540;53.242;10.408;2023-02-07T04:00:19;-2.50;99.90
7000;DHT22;3540;53.242;10.408;2023-02-07T04:02:45;-2.40;99.90
7000;DHT22;3540;53.242;10.408;2023-02-07T04:05:11;-2.40;99.90
7000;DHT22;3540;53.242;10.408;2023-02-07T04:07:36;-2.40;99.90
7000;DHT22;3540;53.242;10.408;2023-02-07T04:10:04;-2.40;99.90
7000;DHT22;3540;53.242;10.408;2023-02-07T04:12:30;-2.50;99.90
7000;DHT22;3540;53.242;10.408;2023-02-07T04:15:02;-2.50;99.90
7000;DHT22;3540;53.242;10.408;2023-02-07T04:17:29;-2.50;99.90
7000;DHT22;3540;53.242;10.408;2023-02-07T04:19:54;-2.40;99.90
7000;DHT22;3540;53.242;10.408;2023-02-07T04:22:20;-2.40;99.90
7000;DHT22;3540;53.242;10.408;2023-02-07T04:24:46;-2.40;99.90
7000;DHT22;3540;53.242;10.408;2023-02-07T04:27:11;-2.50;99.90
7000;DHT22;3540;53.242;10.408;2023-02-07T04:29:37;-2.50;99.90
7000;DHT22;3540;53.242;10.408;2023-02-07T04:32:03;-2.50;99.90
7000;DHT22;3540;53.242;10.408;2023-02-07T04:34:28;-2.40;99.90
7000;DHT22;3540;53.242;10.408;2023-02-07T04:36:54;-2.40;99.90
7000;DHT22;3540;53.242;10.408;2023-02-07T04:39:20;-2.30;99.90
7000;DHT22;3540;53.242;10.408;2023-02-07T04:41:46;-2.30;99.90
7000;DHT22;3540;53.242;10.408;2023-02-07T04:44:11;-2.20;99.90
7000;DHT22;3540;53.242;10.408;2023-02-07T04:46:37;-2.30;99.90
7000;DHT22;3540;53.242;10.408;2023-02-07T04:49:03;-2.50;99.90
7000;DHT22;3540;53.242;10.408;2023-02-07T04:51:29;-2.50;99.90
7000;DHT22;3540;53.242;10.408;2023-02-07T04:53:55;-2.50;99.90
7000;DHT22;3540;53.242;10.408;2023-02-07T04:56:21;-2.60;99.90
7000;DHT22;3540;53.242;10.408;2023-02-07T04:58:47;-2.70;99.90
7000;DHT22;3540;53.242;10.408;2023-02-07T05:01:13;-2.70;99.90
7000;DHT22;3540;53.242;10.408;2023-02-07T05:03:39;-2.70;99.90
7000;DHT22;3540;53.242;10.408;2023-02-07T05:06:05;-2.60;99.90
7000;DHT22;3540;53.242;10.408;2023-02-07T05:08:30;-2.60;99.90
7000;DHT22;3540;53.242;10.408;2023-02-07T05:10:56;-2.60;99.90
7000;DHT22;3540;53.242;10.408;2023-02-07T05:13:23;-2.60;99.90
7000;DHT22;3540;53.242;10.408;2023-02-07T05:15:49;-2.80;99.90
7000;DHT22;3540;53.242;10.408;2023-02-07T05:18:15;-2.80;99.90
7000;DHT22;3540;53.242;10.408;2023-02-07T05:20:40;-2.80;99.90
7000;DHT22;3540;53.242;10.408;2023-02-07T05:23:06;-2.80;99.90
7000;DHT22;3540;53.242;10.408;2023-02-07T05:25:32;-2.80;99.90
7000;DHT22;3540;53.242;10.408;2023-02-07T05:27:57;-2.80;99.90
7000;DHT22;3540;53.242;10.408;2023-02-07T05:30:23;-2.70;99.90
7000;DHT22;3540;53.242;10.408;2023-02-07T05:32:49;-2.70;99.90
7000;DHT22;3540;53.242;10.408;2023-02-07T05:37:59;-2.70;99.90
7000;DHT22;3540;53.242;10.408;2023-02-07T05:40:25;-2.60;99.90
7000;DHT22;3540;53.242;10.408;2023-02-07T05:42:52;-2.60;99.90
7000;DHT22;3540;53.242;10.408;2023-02-07T05:45:18;-2.70;99.90
7000;DHT22;3540;53.242;10.408;2023-02-07T05:47:44;-2.70;99.90
7000;DHT22;3540;53.242;10.408;2023-02-07T05:50:09;-2.80;99.90
7000;DHT22;3540;53.242;10.408;2023-02-07T05:52:35;-2.70;99.90
7000;DHT22;3540;53.242;10.408;2023-02-07T05:55:00;-2.80;99.90
7000;DHT22;3540;53.242;10.408;2023-02-07T05:57:26;-2.80;99.90
7000;DHT22;3540;53.242;10.408;2023-02-07T05:59:52;-2.80;99.90
7000;DHT22;3540;53.242;10.408;2023-02-07T06:02:17;-2.80;99.90
7000;DHT22;3540;53.242;10.408;2023-02-07T06:04:43;-2.80;99.90
7000;DHT22;3540;53.242;10.408;2023-02-07T06:07:09;-2.60;99.90
7000;DHT22;3540;53.242;10.408;2023-02-07T06:09:34;-2.60;99.90
7000;DHT22;3540;53.242;10.408;2023-02-07T06:12:00;-2.60;99.90
7000;DHT22;3540;53.242;10.408;2023-02-07T06:14:26;-2.70;99.90
7000;DHT22;3540;53.242;10.408;2023-02-07T06:16:51;-2.70;99.90
7000;DHT22;3540;53.242;10.408;2023-02-07T06:19:17;-2.80;99.90
7000;DHT22;3540;53.242;10.408;2023-02-07T06:21:42;-2.70;99.90
7000;DHT22;3540;53.242;10.408;2023-02-07T06:24:08;-2.70;99.90
7000;DHT22;3540;53.242;10.408;2023-02-07T06:26:34;-2.80;99.90
7000;DHT22;3540;53.242;10.408;2023-02-07T06:28:59;-2.70;99.90
7000;DHT22;3540;53.242;10.408;2023-02-07T06:31:25;-2.70;99.90
7000;DHT22;3540;53.242;10.408;2023-02-07T06:33:51;-2.70;99.90
7000;DHT22;3540;53.242;10.408;2023-02-07T06:36:17;-2.60;99.90
7000;DHT22;3540;53.242;10.408;2023-02-07T06:38:42;-2.60;99.90
7000;DHT22;3540;53.242;10.408;2023-02-07T06:41:08;-2.60;99.90
7000;DHT22;3540;53.242;10.408;2023-02-07T06:43:36;-2.60;99.90
7000;DHT22;3540;53.242;10.408;2023-02-07T06:46:02;-2.70;99.90
7000;DHT22;3540;53.242;10.408;2023-02-07T06:48:28;-2.70;99.90
7000;DHT22;3540;53.242;10.408;2023-02-07T06:50:54;-2.60;99.90
7000;DHT22;3540;53.242;10.408;2023-02-07T06:53:19;-2.60;99.90
7000;DHT22;3540;53.242;10.408;2023-02-07T06:55:45;-2.50;99.90
7000;DHT22;3540;53.242;10.408;2023-02-07T06:58:11;-2.50;99.90
7000;DHT22;3540;53.242;10.408;2023-02-07T07:00:37;-2.50;99.90
7000;DHT22;3540;53.242;10.408;2023-02-07T07:03:03;-2.60;99.90
7000;DHT22;3540;53.242;10.408;2023-02-07T07:05:29;-2.70;99.90
7000;DHT22;3540;53.242;10.408;2023-02-07T07:07:56;-2.80;99.90
7000;DHT22;3540;53.242;10.408;2023-02-07T07:10:22;-2.80;99.90
7000;DHT22;3540;53.242;10.408;2023-02-07T07:12:48;-2.80;99.90
7000;DHT22;3540;53.242;10.408;2023-02-07T07:15:14;-2.70;99.90
7000;DHT22;3540;53.242;10.408;2023-02-07T07:17:40;-2.70;99.90
7000;DHT22;3540;53.242;10.408;2023-02-07T07:20:06;-2.60;99.90
7000;DHT22;3540;53.242;10.408;2023-02-07T07:22:35;-2.60;99.90
7000;DHT22;3540;53.242;10.408;2023-02-07T07:25:01;-2.50;99.90
7000;DHT22;3540;53.242;10.408;2023-02-07T07:27:28;-2.60;99.90
7000;DHT22;3540;53.242;10.408;2023-02-07T07:29:54;-2.90;99.90
7000;DHT22;3540;53.242;10.408;2023-02-07T07:32:19;-2.90;99.90
7000;DHT22;3540;53.242;10.408;2023-02-07T07:34:45;-2.70;99.90
7000;DHT22;3540;53.242;10.408;2023-02-07T07:37:14;-2.80;99.90
7000;DHT22;3540;53.242;10.408;2023-02-07T07:39:40;-3.10;99.90
7000;DHT22;3540;53.242;10.408;2023-02-07T07:42:05;-3.10;99.90
7000;DHT22;3540;53.242;10.408;2023-02-07T07:44:31;-3.00;99.90
7000;DHT22;3540;53.242;10.408;2023-02-07T07:46:57;-3.00;99.90
7000;DHT22;3540;53.242;10.408;2023-02-07T07:49:22;-3.10;99.90
7000;DHT22;3540;53.242;10.408;2023-02-07T07:51:48;-3.10;99.90
7000;DHT22;3540;53.242;10.408;2023-02-07T07:54:14;-2.90;99.90
7000;DHT22;3540;53.242;10.408;2023-02-07T07:56:40;-2.90;99.90
7000;DHT22;3540;53.242;10.408;2023-02-07T07:59:06;-3.00;99.90
7000;DHT22;3540;53.242;10.408;2023-02-07T08:01:31;-3.10;99.90
7000;DHT22;3540;53.242;10.408;2023-02-07T08:03:57;-3.10;99.90
7000;DHT22;3540;53.242;10.408;2023-02-07T08:06:22;-3.10;99.90
7000;DHT22;3540;53.242;10.408;2023-02-07T08:08:48;-3.10;99.90
7000;DHT22;3540;53.242;10.408;2023-02-07T08:11:14;-3.00;99.90
7000;DHT22;3540;53.242;10.408;2023-02-07T08:13:39;-3.10;99.90
7000;DHT22;3540;53.242;10.408;2023-02-07T08:16:06;-3.10;99.90
7000;DHT22;3540;53.242;10.408;2023-02-07T08:18:38;-2.90;99.90
7000;DHT22;3540;53.242;10.408;2023-02-07T08:21:04;-2.70;99.90
7000;DHT22;3540;53.242;10.408;2023-02-07T08:23:30;-2.60;99.90
7000;DHT22;3540;53.242;10.408;2023-02-07T08:25:56;-2.60;99.90
7000;DHT22;3540;53.242;10.408;2023-02-07T08:28:21;-2.50;99.90
7000;DHT22;3540;53.242;10.408;2023-02-07T08:30:47;-2.40;99.90
7000;DHT22;3540;53.242;10.408;2023-02-07T08:33:14;-2.60;99.90
7000;DHT22;3540;53.242;10.408;2023-02-07T08:35:40;-2.50;99.90
7000;DHT22;3540;53.242;10.408;2023-02-07T08:38:06;-2.50;99.90
7000;DHT22;3540;53.242;10.408;2023-02-07T08:40:32;-2.30;99.90
7000;DHT22;3540;53.242;10.408;2023-02-07T08:42:58;-2.40;99.90
7000;DHT22;3540;53.242;10.408;2023-02-07T08:45:24;-2.20;99.90
7000;DHT22;3540;53.242;10.408;2023-02-07T08:47:50;-2.00;99.90
7000;DHT22;3540;53.242;10.408;2023-02-07T08:50:17;-1.90;99.90
7000;DHT22;3540;53.242;10.408;2023-02-07T08:52:43;-1.90;99.90
7000;DHT22;3540;53.242;10.408;2023-02-07T08:55:10;-1.80;99.90
7000;DHT22;3540;53.242;10.408;2023-02-07T08:57:36;-1.80;99.90
7000;DHT22;3540;53.242;10.408;2023-02-07T09:00:03;-1.70;99.90
7000;DHT22;3540;53.242;10.408;2023-02-07T09:02:29;-1.70;99.90
7000;DHT22;3540;53.242;10.408;2023-02-07T09:04:54;-1.50;99.90
7000;DHT22;3540;53.242;10.408;2023-02-07T09:07:20;-1.50;99.90
7000;DHT22;3540;53.242;10.408;2023-02-07T09:09:46;-1.50;99.90
7000;DHT22;3540;53.242;10.408;2023-02-07T09:12:12;-1.40;99.90
7000;DHT22;3540;53.242;10.408;2023-02-07T09:14:38;-1.30;99.90
7000;DHT22;3540;53.242;10.408;2023-02-07T09:17:05;-1.20;99.90
7000;DHT22;3540;53.242;10.408;2023-02-07T09:19:31;-1.70;99.90
7000;DHT22;3540;53.242;10.408;2023-02-07T09:21:57;-1.90;99.90
7000;DHT22;3540;53.242;10.408;2023-02-07T09:24:23;-2.30;99.90
7000;DHT22;3540;53.242;10.408;2023-02-07T09:26:49;-2.30;99.90
7000;DHT22;3540;53.242;10.408;2023-02-07T09:29:15;-2.20;99.90
7000;DHT22;3540;53.242;10.408;2023-02-07T09:31:41;-2.00;99.90
7000;DHT22;3540;53.242;10.408;2023-02-07T09:34:07;-1.70;99.90
7000;DHT22;3540;53.242;10.408;2023-02-07T09:36:33;-1.70;99.90
7000;DHT22;3540;53.242;10.408;2023-02-07T09:39:00;-1.80;99.90
7000;DHT22;3540;53.242;10.408;2023-02-07T09:41:46;-2.00;99.90
7000;DHT22;3540;53.242;10.408;2023-02-07T09:47:22;-2.00;99.90
7000;DHT22;3540;53.242;10.408;2023-02-07T09:52:30;-1.60;99.90
7000;DHT22;3540;53.242;10.408;2023-02-07T09:54:58;-1.40;99.90
7000;DHT22;3540;53.242;10.408;2023-02-07T09:57:32;-1.50;99.90
7000;DHT22;3540;53.242;10.408;2023-02-07T10:00:27;-1.30;99.90
7000;DHT22;3540;53.242;10.408;2023-02-07T10:02:57;-1.00;99.90
7000;DHT22;3540;53.242;10.408;2023-02-07T10:05:41;-0.80;99.90
7000;DHT22;3540;53.242;10.408;2023-02-07T10:08:12;-0.90;99.90
7000;DHT22;3540;53.242;10.408;2023-02-07T10:13:53;-0.60;99.90
7000;DHT22;3540;53.242;10.408;2023-02-07T10:16:38;-0.70;99.90
7000;DHT22;3540;53.242;10.408;2023-02-07T10:25:02;-0.10;99.90
7000;DHT22;3540;53.242;10.408;2023-02-07T10:30:51;0.00;99.90
7000;DHT22;3540;53.242;10.408;2023-02-07T10:33:24;0.10;99.90
7000;DHT22;3540;53.242;10.408;2023-02-07T10:35:53;0.30;99.90
7000;DHT22;3540;53.242;10.408;2023-02-07T10:38:20;0.40;99.90
7000;DHT22;3540;53.242;10.408;2023-02-07T10:40:59;0.50;99.90
7000;DHT22;3540;53.242;10.408;2023-02-07T10:43:26;0.60;99.90
7000;DHT22;3540;53.242;10.408;2023-02-07T10:45:57;0.50;99.90
7000;DHT22;3540;53.242;10.408;2023-02-07T10:48:23;0.40;99.90
7000;DHT22;3540;53.242;10.408;2023-02-07T10:50:49;0.50;99.90
7000;DHT22;3540;53.242;10.408;2023-02-07T10:54:08;0.70;99.90
7000;DHT22;3540;53.242;10.408;2023-02-07T10:56:28;0.70;99.90
7000;DHT22;3540;53.242;10.408;2023-02-07T10:58:57;0.70;99.90
7000;DHT22;3540;53.242;10.408;2023-02-07T11:01:26;0.80;99.90
7000;DHT22;3540;53.242;10.408;2023-02-07T11:03:52;1.00;99.90
7000;DHT22;3540;53.242;10.408;2023-02-07T11:09:11;1.10;99.90
7000;DHT22;3540;53.242;10.408;2023-02-07T11:11:36;1.30;99.90
7000;DHT22;3540;53.242;10.408;2023-02-07T11:14:06;1.30;99.90
7000;DHT22;3540;53.242;10.408;2023-02-07T11:16:32;1.40;99.90
7000;DHT22;3540;53.242;10.408;2023-02-07T11:19:04;1.50;99.90
7000;DHT22;3540;53.242;10.408;2023-02-07T11:24:46;1.80;99.90
7000;DHT22;3540;53.242;10.408;2023-02-07T11:27:10;2.00;99.90
7000;DHT22;3540;53.242;10.408;2023-02-07T11:29:58;2.00;99.90
7000;DHT22;3540;53.242;10.408;2023-02-07T11:32:25;2.00;99.90
7000;DHT22;3540;53.242;10.408;2023-02-07T11:34:54;2.00;99.90
7000;DHT22;3540;53.242;10.408;2023-02-07T11:39:55;2.20;99.90
7000;DHT22;3540;53.242;10.408;2023-02-07T11:42:30;2.30;99.90
7000;DHT22;3540;53.242;10.408;2023-02-07T11:45:02;2.40;99.90
7000;DHT22;3540;53.242;10.408;2023-02-07T11:47:29;2.40;99.90
7000;DHT22;3540;53.242;10.408;2023-02-07T11:49:57;2.50;99.90
7000;DHT22;3540;53.242;10.408;2023-02-07T11:52:25;2.70;99.90
7000;DHT22;3540;53.242;10.408;2023-02-07T11:54:56;2.70;99.90
7000;DHT22;3540;53.242;10.408;2023-02-07T11:57:23;2.80;99.90
7000;DHT22;3540;53.242;10.408;2023-02-07T12:00:06;2.80;99.90
7000;DHT22;3540;53.242;10.408;2023-02-07T12:02:47;2.80;99.90
7000;DHT22;3540;53.242;10.408;2023-02-07T12:07:48;2.90;99.90
7000;DHT22;3540;53.242;10.408;2023-02-07T12:10:24;2.80;99.90
7000;DHT22;3540;53.242;10.408;2023-02-07T12:13:05;2.90;99.90
7000;DHT22;3540;53.242;10.408;2023-02-07T12:15:53;3.10;99.90
7000;DHT22;3540;53.242;10.408;2023-02-07T12:18:30;3.10;99.90
7000;DHT22;3540;53.242;10.408;2023-02-07T12:24:04;3.40;99.90
7000;DHT22;3540;53.242;10.408;2023-02-07T12:27:12;3.40;99.90
7000;DHT22;3540;53.242;10.408;2023-02-07T12:38:27;3.30;99.90
7000;DHT22;3540;53.242;10.408;2023-02-07T12:40:57;3.50;99.90
7000;DHT22;3540;53.242;10.408;2023-02-07T12:43:30;3.40;99.90
7000;DHT22;3540;53.242;10.408;2023-02-07T12:55:19;3.60;99.90
7000;DHT22;3540;53.242;10.408;2023-02-07T12:57:38;3.70;99.90
7000;DHT22;3540;53.242;10.408;2023-02-07T13:08:57;4.00;99.90
7000;DHT22;3540;53.242;10.408;2023-02-07T13:11:40;4.00;99.90
7000;DHT22;3540;53.242;10.408;2023-02-07T13:17:11;4.00;99.90
7000;DHT22;3540;53.242;10.408;2023-02-07T13:19:40;4.10;99.90
7000;DHT22;3540;53.242;10.408;2023-02-07T13:24:56;3.90;99.90
7000;DHT22;3540;53.242;10.408;2023-02-07T13:27:22;4.00;99.90
7000;DHT22;3540;53.242;10.408;2023-02-07T13:29:50;3.90;99.90
7000;DHT22;3540;53.242;10.408;2023-02-07T13:32:25;3.90;99.90
7000;DHT22;3540;53.242;10.408;2023-02-07T13:37:21;3.80;99.90
7000;DHT22;3540;53.242;10.408;2023-02-07T13:43:17;3.80;99.90
7000;DHT22;3540;53.242;10.408;2023-02-07T13:53:40;3.70;99.90
7000;DHT22;3540;53.242;10.408;2023-02-07T13:56:11;3.60;99.90
7000;DHT22;3540;53.242;10.408;2023-02-07T13:58:57;3.70;99.90
7000;DHT22;3540;53.242;10.408;2023-02-07T14:01:52;3.60;99.90
7000;DHT22;3540;53.242;10.408;2023-02-07T14:04:20;3.60;99.90
7000;DHT22;3540;53.242;10.408;2023-02-07T14:14:29;3.60;99.90
7000;DHT22;3540;53.242;10.408;2023-02-07T14:17:12;3.60;99.90
7000;DHT22;3540;53.242;10.408;2023-02-07T14:27:34;3.50;99.90
7000;DHT22;3540;53.242;10.408;2023-02-07T14:32:31;3.40;99.90
7000;DHT22;3540;53.242;10.408;2023-02-07T14:40:23;3.20;99.90
7000;DHT22;3540;53.242;10.408;2023-02-07T14:43:00;3.20;99.90
7000;DHT22;3540;53.242;10.408;2023-02-07T14:45:35;3.20;99.90
7000;DHT22;3540;53.242;10.408;2023-02-07T14:48:03;3.20;99.90
7000;DHT22;3540;53.242;10.408;2023-02-07T14:50:29;3.20;99.90
7000;DHT22;3540;53.242;10.408;2023-02-07T14:52:59;3.20;99.90
7000;DHT22;3540;53.242;10.408;2023-02-07T14:55:40;3.20;99.90
7000;DHT22;3540;53.242;10.408;2023-02-07T14:58:14;3.20;99.90
7000;DHT22;3540;53.242;10.408;2023-02-07T15:00:48;3.10;99.90
7000;DHT22;3540;53.242;10.408;2023-02-07T15:03:18;3.00;99.90
7000;DHT22;3540;53.242;10.408;2023-02-07T15:05:52;3.00;99.90
7000;DHT22;3540;53.242;10.408;2023-02-07T15:08:20;3.00;99.90
7000;DHT22;3540;53.242;10.408;2023-02-07T15:13:38;3.00;99.90
7000;DHT22;3540;53.242;10.408;2023-02-07T15:16:15;3.00;99.90
7000;DHT22;3540;53.242;10.408;2023-02-07T15:18:48;2.90;99.90
7000;DHT22;3540;53.242;10.408;2023-02-07T15:21:39;2.90;99.90
7000;DHT22;3540;53.242;10.408;2023-02-07T15:24:18;2.90;99.90
7000;DHT22;3540;53.242;10.408;2023-02-07T15:26:58;2.90;99.90
7000;DHT22;3540;53.242;10.408;2023-02-07T15:29:30;2.80;99.90
7000;DHT22;3540;53.242;10.408;2023-02-07T15:31:57;2.80;99.90
7000;DHT22;3540;53.242;10.408;2023-02-07T15:34:25;2.70;99.90
7000;DHT22;3540;53.242;10.408;2023-02-07T15:37:18;2.70;99.90
7000;DHT22;3540;53.242;10.408;2023-02-07T15:39:44;2.70;99.90
7000;DHT22;3540;53.242;10.408;2023-02-07T15:42:17;2.60;99.90
7000;DHT22;3540;53.242;10.408;2023-02-07T15:44:54;2.50;99.90
7000;DHT22;3540;53.242;10.408;2023-02-07T15:47:33;2.50;99.90
7000;DHT22;3540;53.242;10.408;2023-02-07T15:50:23;2.50;99.90
7000;DHT22;3540;53.242;10.408;2023-02-07T15:52:52;2.40;99.90
7000;DHT22;3540;53.242;10.408;2023-02-07T15:57:55;2.30;99.90
7000;DHT22;3540;53.242;10.408;2023-02-07T16:00:26;2.20;99.90
7000;DHT22;3540;53.242;10.408;2023-02-07T16:02:58;2.10;99.90
7000;DHT22;3540;53.242;10.408;2023-02-07T16:05:35;2.00;99.90
7000;DHT22;3540;53.242;10.408;2023-02-07T16:08:04;1.90;99.90
7000;DHT22;3540;53.242;10.408;2023-02-07T16:15:59;1.60;99.90
7000;DHT22;3540;53.242;10.408;2023-02-07T16:18:49;1.60;99.90
7000;DHT22;3540;53.242;10.408;2023-02-07T16:21:16;1.50;99.90
7000;DHT22;3540;53.242;10.408;2023-02-07T16:23:44;1.50;99.90
7000;DHT22;3540;53.242;10.408;2023-02-07T16:26:11;1.40;99.90
7000;DHT22;3540;53.242;10.408;2023-02-07T16:28:37;1.30;99.90
7000;DHT22;3540;53.242;10.408;2023-02-07T16:31:03;1.20;99.90
7000;DHT22;3540;53.242;10.408;2023-02-07T16:33:28;1.10;99.90
7000;DHT22;3540;53.242;10.408;2023-02-07T16:35:54;1.10;99.90
7000;DHT22;3540;53.242;10.408;2023-02-07T16:38:19;1.00;99.90
7000;DHT22;3540;53.242;10.408;2023-02-07T16:40:45;0.90;99.90
7000;DHT22;3540;53.242;10.408;2023-02-07T16:43:32;0.80;99.90
7000;DHT22;3540;53.242;10.408;2023-02-07T16:46:00;0.70;99.90
7000;DHT22;3540;53.242;10.408;2023-02-07T16:48:26;0.60;99.90
7000;DHT22;3540;53.242;10.408;2023-02-07T16:50:51;0.50;99.90
7000;DHT22;3540;53.242;10.408;2023-02-07T16:53:17;0.40;99.90
7000;DHT22;3540;53.242;10.408;2023-02-07T16:55:43;0.40;99.90
7000;DHT22;3540;53.242;10.408;2023-02-07T16:58:19;0.20;99.90
7000;DHT22;3540;53.242;10.408;2023-02-07T17:00:45;0.10;99.90
7000;DHT22;3540;53.242;10.408;2023-02-07T17:03:14;0.00;99.90
7000;DHT22;3540;53.242;10.408;2023-02-07T17:05:40;-0.10;99.90
7000;DHT22;3540;53.242;10.408;2023-02-07T17:08:05;-0.20;99.90
7000;DHT22;3540;53.242;10.408;2023-02-07T17:10:33;-0.20;99.90
7000;DHT22;3540;53.242;10.408;2023-02-07T17:12:59;-0.30;99.90
7000;DHT22;3540;53.242;10.408;2023-02-07T17:15:25;-0.40;99.90
7000;DHT22;3540;53.242;10.408;2023-02-07T17:17:50;-0.40;99.90
7000;DHT22;3540;53.242;10.408;2023-02-07T17:20:28;-0.50;99.90
7000;DHT22;3540;53.242;10.408;2023-02-07T17:22:54;-0.60;99.90
7000;DHT22;3540;53.242;10.408;2023-02-07T17:25:22;-0.60;99.90
7000;DHT22;3540;53.242;10.408;2023-02-07T17:27:48;-0.70;99.90
7000;DHT22;3540;53.242;10.408;2023-02-07T17:30:18;-0.70;99.90
7000;DHT22;3540;53.242;10.408;2023-02-07T17:32:44;-0.70;99.90
7000;DHT22;3540;53.242;10.408;2023-02-07T17:35:11;-0.70;99.90
7000;DHT22;3540;53.242;10.408;2023-02-07T17:37:36;-0.70;99.90
7000;DHT22;3540;53.242;10.408;2023-02-07T17:40:03;-0.70;99.90
7000;DHT22;3540;53.242;10.408;2023-02-07T17:42:29;-0.80;99.90
7000;DHT22;3540;53.242;10.408;2023-02-07T17:44:55;-0.80;99.90
7000;DHT22;3540;53.242;10.408;2023-02-07T17:47:20;-0.80;99.90
7000;DHT22;3540;53.242;10.408;2023-02-07T17:49:47;-0.80;99.90
7000;DHT22;3540;53.242;10.408;2023-02-07T17:52:13;-0.80;99.90
7000;DHT22;3540;53.242;10.408;2023-02-07T17:54:39;-0.90;99.90
7000;DHT22;3540;53.242;10.408;2023-02-07T17:57:12;-0.90;99.90
7000;DHT22;3540;53.242;10.408;2023-02-07T17:59:38;-0.90;99.90
7000;DHT22;3540;53.242;10.408;2023-02-07T18:02:04;-0.90;99.90
7000;DHT22;3540;53.242;10.408;2023-02-07T18:04:29;-1.00;99.90
7000;DHT22;3540;53.242;10.408;2023-02-07T18:06:55;-1.00;99.90
7000;DHT22;3540;53.242;10.408;2023-02-07T18:09:21;-1.00;99.90
7000;DHT22;3540;53.242;10.408;2023-02-07T18:11:47;-1.00;99.90
7000;DHT22;3540;53.242;10.408;2023-02-07T18:14:13;-1.00;99.90
7000;DHT22;3540;53.242;10.408;2023-02-07T18:16:39;-1.00;99.90
7000;DHT22;3540;53.242;10.408;2023-02-07T18:19:06;-1.10;99.90
7000;DHT22;3540;53.242;10.408;2023-02-07T18:21:34;-1.10;99.90
7000;DHT22;3540;53.242;10.408;2023-02-07T18:24:00;-1.10;99.90
7000;DHT22;3540;53.242;10.408;2023-02-07T18:26:26;-1.10;99.90
7000;DHT22;3540;53.242;10.408;2023-02-07T18:28:52;-1.00;99.90
7000;DHT22;3540;53.242;10.408;2023-02-07T18:31:20;-1.00;99.90
7000;DHT22;3540;53.242;10.408;2023-02-07T18:33:47;-1.00;99.90
7000;DHT22;3540;53.242;10.408;2023-02-07T18:36:13;-1.10;99.90
7000;DHT22;3540;53.242;10.408;2023-02-07T18:38:39;-1.10;99.90